sensor_id;sensor_type;location;lat;lon;timestamp;temperature;humidity
46976;DHT22;32724;51.094;6.996;2023-02-23T00:01:54;8.60;99.90
46976;DHT22;32724;51.094;6.996;2023-02-23T00:04:20;8.60;99.90
46976;DHT22;32724;51.094;6.996;2023-02-23T00:06:45;8.70;99.90
46976;DHT22;32724;51.094;6.996;2023-02-23T00:09:11;8.70;99.90
46976;DHT22;32724;51.094;6.996;2023-02-23T00:11:53;8.80;99.90
46976;DHT22;32724;51.094;6.996;2023-02-23T00:14:19;8.80;99.90
46976;DHT22;32724;51.094;6.996;2023-02-23T00:16:45;8.80;99.90
46976;DHT22;32724;51.094;6.996;2023-02-23T00:19:11;8.90;99.90
46976;DHT22;32724;51.094;6.996;2023-02-23T00:21:38;8.90;99.90
46976;DHT22;32724;51.094;6.996;2023-02-23T00:24:05;8.90;99.90
46976;DHT22;32724;51.094;6.996;2023-02-23T00:26:32;8.90;99.90
46976;DHT22;32724;51.094;6.996;2023-02-23T00:29:10;9.00;99.90
46976;DHT22;32724;51.094;6.996;2023-02-23T00:31:36;9.00;99.90
46976;DHT22;32724;51.094;6.996;2023-02-23T00:34:03;9.00;99.90
46976;DHT22;32724;51.094;6.996;2023-02-23T00:36:29;9.00;99.90
46976;DHT22;32724;51.094;6.996;2023-02-23T00:38:56;9.10;99.90
46976;DHT22;32724;51.094;6.996;2023-02-23T00:41:22;9.10;99.90
46976;DHT22;32724;51.094;6.996;2023-02-23T00:43:49;9.10;99.90
46976;DHT22;32724;51.094;6.996;2023-02-23T00:46:19;9.10;99.90
46976;DHT22;32724;51.094;6.996;2023-02-23T00:48:49;9.00;99.90
46976;DHT22;32724;51.094;6.996;2023-02-23T00:51:15;9.00;99.90
46976;DHT22;32724;51.094;6.996;2023-02-23T00:53:41;9.10;99.90
46976;DHT22;32724;51.094;6.996;2023-02-23T00:56:07;9.00;99.90
46976;DHT22;32724;51.094;6.996;2023-02-23T00:58:33;8.90;99.90
46976;DHT22;32724;51.094;6.996;2023-02-23T01:00:58;8.50;99.90
46976;DHT22;32724;51.094;6.996;2023-02-23T01:03:28;8.60;99.90
46976;DHT22;32724;51.094;6.996;2023-02-23T01:05:58;8.50;99.90
46976;DHT22;32724;51.094;6.996;2023-02-23T01:08:23;8.60;99.90
46976;DHT22;32724;51.094;6.996;2023-02-23T01:10:49;8.60;99.90
46976;DHT22;32724;51.094;6.996;2023-02-23T01:13:20;8.60;99.90
46976;DHT22;32724;51.094;6.996;2023-02-23T01:15:46;8.70;99.90
46976;DHT22;32724;51.094;6.996;2023-02-23T01:18:15;8.70;99.90
46976;DHT22;32724;51.094;6.996;2023-02-23T01:20:41;8.80;99.90
46976;DHT22;32724;51.094;6.996;2023-02-23T01:23:07;8.90;99.90
46976;DHT22;32724;51.094;6.996;2023-02-23T01:25:33;8.90;99.90
46976;DHT22;32724;51.094;6.996;2023-02-23T01:27:59;8.90;99.90
46976;DHT22;32724;51.094;6.996;2023-02-23T01:30:24;8.90;99.90
46976;DHT22;32724;51.094;6.996;2023-02-23T01:32:50;9.00;99.90
46976;DHT22;32724;51.094;6.996;2023-02-23T01:35:16;9.00;99.90
46976;DHT22;32724;51.094;6.996;2023-02-23T01:37:41;9.00;99.90
46976;DHT22;32724;51.094;6.996;2023-02-23T01:40:14;9.00;99.90
46976;DHT22;32724;51.094;6.996;2023-02-23T01:42:41;9.10;99.90
46976;DHT22;32724;51.094;6.996;2023-02-23T01:47:54;9.00;99.90
46976;DHT22;32724;51.094;6.996;2023-02-23T01:50:20;9.10;99.90
46976;DHT22;32724;51.094;6.996;2023-02-23T01:52:46;9.00;99.90
46976;DHT22;32724;51.094;6.996;2023-02-23T01:55:13;9.00;99.90
46976;DHT22;32724;51.094;6.996;2023-02-23T01:57:40;9.00;99.90
46976;DHT22;32724;51.094;6.996;2023-02-23T02:00:06;9.00;99.90
46976;DHT22;32724;51.094;6.996;2023-02-23T02:02:39;8.80;99.90
46976;DHT22;32724;51.094;6.996;2023-02-23T02:05:06;8.40;99.90
46976;DHT22;32724;51.094;6.996;2023-02-23T02:07:37;8.40;99.90
46976;DHT22;32724;51.094;6.996;2023-02-23T02:10:04;8.30;99.90
46976;DHT22;32724;51.094;6.996;2023-02-23T02:12:36;8.40;99.90
46976;DHT22;32724;51.094;6.996;2023-02-23T02:15:03;8.30;99.90
46976;DHT22;32724;51.094;6.996;2023-02-23T02:17:41;8.40;99.90
46976;DHT22;32724;51.094;6.996;2023-02-23T02:23:26;8.40;99.90
46976;DHT22;32724;51.094;6.996;2023-02-23T02:26:00;8.30;99.90
46976;DHT22;32724;51.094;6.996;2023-02-23T02:46:46;8.60;99.90
46976;DHT22;32724;51.094;6.996;2023-02-23T02:49:22;8.60;99.90
46976;DHT22;32724;51.094;6.996;2023-02-23T02:54:38;8.80;99.90
46976;DHT22;32724;51.094;6.996;2023-02-23T02:57:05;8.80;99.90
46976;DHT22;32724;51.094;6.996;2023-02-23T02:59:31;8.90;99.90
46976;DHT22;32724;51.094;6.996;2023-02-23T03:02:25;8.70;99.90
46976;DHT22;32724;51.094;6.996;2023-02-23T03:05:13;8.30;99.90
46976;DHT22;32724;51.094;6.996;2023-02-23T03:08:07;8.20;99.90
46976;DHT22;32724;51.094;6.996;2023-02-23T03:11:01;8.30;99.90
46976;DHT22;32724;51.094;6.996;2023-02-23T03:13:48;8.30;99.90
46976;DHT22;32724;51.094;6.996;2023-02-23T03:16:43;8.30;99.90
46976;DHT22;32724;51.094;6.996;2023-02-23T03:19:29;8.30;99.90
46976;DHT22;32724;51.094;6.996;2023-02-23T03:22:20;8.30;99.90
46976;DHT22;32724;51.094;6.996;2023-02-23T03:25:07;8.30;99.90
46976;DHT22;32724;51.094;6.996;2023-02-23T03:36:27;8.30;99.90
46976;DHT22;32724;51.094;6.996;2023-02-23T03:39:17;8.40;99.90
46976;DHT22;32724;51.094;6.996;2023-02-23T03:42:03;8.50;99.90
46976;DHT22;32724;51.094;6.996;2023-02-23T03:44:48;8.50;99.90
46976;DHT22;32724;51.094;6.996;2023-02-23T03:47:34;8.60;99.90
46976;DHT22;32724;51.094;6.996;2023-02-23T03:50:22;8.70;99.90
46976;DHT22;32724;51.094;6.996;2023-02-23T03:53:08;8.80;99.90
46976;DHT22;32724;51.094;6.996;2023-02-23T03:55:53;8.80;99.90
46976;DHT22;32724;51.094;6.996;2023-02-23T03:58:45;8.90;99.90
46976;DHT22;32724;51.094;6.996;2023-02-23T04:01:31;8.20;99.90
46976;DHT22;32724;51.094;6.996;2023-02-23T04:04:16;8.20;99.90
46976;DHT22;32724;51.094;6.996;2023-02-23T04:07:01;8.30;99.90
46976;DHT22;32724;51.094;6.996;2023-02-23T04:09:46;8.70;99.90
46976;DHT22;32724;51.094;6.996;2023-02-23T04:12:33;8.20;99.90
46976;DHT22;32724;51.094;6.996;2023-02-23T04:15:26;8.20;99.90
46976;DHT22;32724;51.094;6.996;2023-02-23T04:17:54;8.10;99.90
46976;DHT22;32724;51.094;6.996;2023-02-23T04:20:19;8.20;99.90
46976;DHT22;32724;51.094;6.996;2023-02-23T04:22:45;8.20;99.90
46976;DHT22;32724;51.094;6.996;2023-02-23T04:25:10;8.30;99.90
46976;DHT22;32724;51.094;6.996;2023-02-23T04:27:37;8.30;99.90
46976;DHT22;32724;51.094;6.996;2023-02-23T04:30:03;8.30;99.90
46976;DHT22;32724;51.094;6.996;2023-02-23T04:32:29;8.30;99.90
46976;DHT22;32724;51.094;6.996;2023-02-23T04:34:54;8.40;99.90
46976;DHT22;32724;51.094;6.996;2023-02-23T04:37:20;8.50;99.90
46976;DHT22;32724;51.094;6.996;2023-02-23T04:39:46;8.60;99.90
46976;DHT22;32724;51.094;6.996;2023-02-23T04:42:14;8.70;99.90
46976;DHT22;32724;51.094;6.996;2023-02-23T04:44:40;8.70;99.90
46976;DHT22;32724;51.094;6.996;2023-02-23T04:47:05;8.80;99.90
46976;DHT22;32724;51.094;6.996;2023-02-23T04:49:31;8.80;99.90
46976;DHT22;32724;51.094;6.996;2023-02-23T04:51:56;8.80;99.90
46976;DHT22;32724;51.094;6.996;2023-02-23T04:54:22;8.80;99.90
46976;DHT22;32724;51.094;6.996;2023-02-23T04:56:47;8.80;99.90
46976;DHT22;32724;51.094;6.996;2023-02-23T04:59:13;8.40;99.90
46976;DHT22;32724;51.094;6.996;2023-02-23T05:01:39;8.20;99.90
46976;DHT22;32724;51.094;6.996;2023-02-23T05:04:04;8.10;99.90
46976;DHT22;32724;51.094;6.996;2023-02-23T05:06:30;8.10;99.90
46976;DHT22;32724;51.094;6.996;2023-02-23T05:08:55;8.20;99.90
46976;DHT22;32724;51.094;6.996;2023-02-23T05:11:30;8.20;99.90
46976;DHT22;32724;51.094;6.996;2023-02-23T05:13:56;8.20;99.90
46976;DHT22;32724;51.094;6.996;2023-02-23T05:16:21;8.20;99.90
46976;DHT22;32724;51.094;6.996;2023-02-23T05:18:47;8.10;99.90
46976;DHT22;32724;51.094;6.996;2023-02-23T05:21:13;8.10;99.90
46976;DHT22;32724;51.094;6.996;2023-02-23T05:23:40;8.10;99.90
46976;DHT22;32724;51.094;6.996;2023-02-23T05:26:06;8.10;99.90
46976;DHT22;32724;51.094;6.996;2023-02-23T05:28:32;8.10;99.90
46976;DHT22;32724;51.094;6.996;2023-02-23T05:30:59;8.20;99.90
46976;DHT22;32724;51.094;6.996;2023-02-23T05:33:24;8.30;99.90
46976;DHT22;32724;51.094;6.996;2023-02-23T05:35:50;8.40;99.90
46976;DHT22;32724;51.094;6.996;2023-02-23T05:38:15;8.50;99.90
46976;DHT22;32724;51.094;6.996;2023-02-23T05:40:41;8.50;99.90
46976;DHT22;32724;51.094;6.996;2023-02-23T05:43:06;8.60;99.90
46976;DHT22;32724;51.094;6.996;2023-02-23T05:45:31;8.60;99.90
46976;DHT22;32724;51.094;6.996;2023-02-23T05:47:57;8.60;99.90
46976;DHT22;32724;51.094;6.996;2023-02-23T05:50:23;8.60;99.90
46976;DHT22;32724;51.094;6.996;2023-02-23T05:52:48;8.60;99.90
46976;DHT22;32724;51.094;6.996;2023-02-23T05:55:14;8.10;99.90
46976;DHT22;32724;51.094;6.996;2023-02-23T05:57:39;8.00;99.90
46976;DHT22;32724;51.094;6.996;2023-02-23T06:00:05;8.00;99.90
46976;DHT22;32724;51.094;6.996;2023-02-23T06:02:31;7.90;99.90
46976;DHT22;32724;51.094;6.996;2023-02-23T06:04:57;7.90;99.90
46976;DHT22;32724;51.094;6.996;2023-02-23T06:07:22;8.00;99.90
46976;DHT22;32724;51.094;6.996;2023-02-23T06:09:48;8.00;99.90
46976;DHT22;32724;51.094;6.996;2023-02-23T06:12:13;8.00;99.90
46976;DHT22;32724;51.094;6.996;2023-02-23T06:14:39;7.90;99.90
46976;DHT22;32724;51.094;6.996;2023-02-23T06:17:04;8.00;99.90
46976;DHT22;32724;51.094;6.996;2023-02-23T06:19:30;8.00;99.90
46976;DHT22;32724;51.094;6.996;2023-02-23T06:21:55;8.00;99.90
46976;DHT22;32724;51.094;6.996;2023-02-23T06:24:21;7.90;99.90
46976;DHT22;32724;51.094;6.996;2023-02-23T06:26:47;7.70;99.90
46976;DHT22;32724;51.094;6.996;2023-02-23T06:29:13;7.50;99.90
46976;DHT22;32724;51.094;6.996;2023-02-23T06:31:38;7.40;99.90
46976;DHT22;32724;51.094;6.996;2023-02-23T06:34:04;7.50;99.90
46976;DHT22;32724;51.094;6.996;2023-02-23T06:36:29;7.40;99.90
46976;DHT22;32724;51.094;6.996;2023-02-23T06:38:58;7.70;99.90
46976;DHT22;32724;51.094;6.996;2023-02-23T06:41:25;7.80;99.90
46976;DHT22;32724;51.094;6.996;2023-02-23T06:43:51;8.10;99.90
46976;DHT22;32724;51.094;6.996;2023-02-23T06:46:17;8.20;99.90
46976;DHT22;32724;51.094;6.996;2023-02-23T06:48:42;8.20;99.90
46976;DHT22;32724;51.094;6.996;2023-02-23T06:51:08;8.30;99.90
46976;DHT22;32724;51.094;6.996;2023-02-23T06:53:34;8.30;99.90
46976;DHT22;32724;51.094;6.996;2023-02-23T06:56:00;8.40;99.90
46976;DHT22;32724;51.094;6.996;2023-02-23T06:58:25;8.40;99.90
46976;DHT22;32724;51.094;6.996;2023-02-23T07:00:53;8.50;99.90
46976;DHT22;32724;51.094;6.996;2023-02-23T07:03:21;8.30;99.90
46976;DHT22;32724;51.094;6.996;2023-02-23T07:05:47;7.90;99.90
46976;DHT22;32724;51.094;6.996;2023-02-23T07:08:12;7.90;99.90
46976;DHT22;32724;51.094;6.996;2023-02-23T07:10:38;7.90;99.90
46976;DHT22;32724;51.094;6.996;2023-02-23T07:13:03;7.90;99.90
46976;DHT22;32724;51.094;6.996;2023-02-23T07:15:28;7.90;99.90
46976;DHT22;32724;51.094;6.996;2023-02-23T07:17:54;7.90;99.90
46976;DHT22;32724;51.094;6.996;2023-02-23T07:20:21;8.00;99.90
46976;DHT22;32724;51.094;6.996;2023-02-23T07:22:46;8.00;99.90
46976;DHT22;32724;51.094;6.996;2023-02-23T07:25:12;8.00;99.90
46976;DHT22;32724;51.094;6.996;2023-02-23T07:27:38;8.00;99.90
46976;DHT22;32724;51.094;6.996;2023-02-23T07:30:03;8.00;99.90
46976;DHT22;32724;51.094;6.996;2023-02-23T07:32:29;8.10;99.90
46976;DHT22;32724;51.094;6.996;2023-02-23T07:34:54;8.20;99.90
46976;DHT22;32724;51.094;6.996;2023-02-23T07:37:20;8.30;99.90
46976;DHT22;32724;51.094;6.996;2023-02-23T07:39:46;8.40;99.90
46976;DHT22;32724;51.094;6.996;2023-02-23T07:42:12;8.40;99.90
46976;DHT22;32724;51.094;6.996;2023-02-23T07:44:38;8.50;99.90
46976;DHT22;32724;51.094;6.996;2023-02-23T07:47:03;8.50;99.90
46976;DHT22;32724;51.094;6.996;2023-02-23T07:49:29;8.50;99.90
46976;DHT22;32724;51.094;6.996;2023-02-23T07:51:55;8.60;99.90
46976;DHT22;32724;51.094;6.996;2023-02-23T07:54:20;8.60;99.90
46976;DHT22;32724;51.094;6.996;2023-02-23T07:56:46;8.20;99.90
46976;DHT22;32724;51.094;6.996;2023-02-23T07:59:12;7.80;99.90
46976;DHT22;32724;51.094;6.996;2023-02-23T08:01:38;7.90;99.90
46976;DHT22;32724;51.094;6.996;2023-02-23T08:04:04;7.90;99.90
46976;DHT22;32724;51.094;6.996;2023-02-23T08:06:29;7.90;99.90
46976;DHT22;32724;51.094;6.996;2023-02-23T08:08:57;7.90;99.90
46976;DHT22;32724;51.094;6.996;2023-02-23T08:11:22;7.90;99.90
46976;DHT22;32724;51.094;6.996;2023-02-23T08:13:48;8.00;99.90
46976;DHT22;32724;51.094;6.996;2023-02-23T08:16:13;8.00;99.90
46976;DHT22;32724;51.094;6.996;2023-02-23T08:18:40;8.00;99.90
46976;DHT22;32724;51.094;6.996;2023-02-23T08:21:06;8.00;99.90
46976;DHT22;32724;51.094;6.996;2023-02-23T08:23:32;8.00;99.90
46976;DHT22;32724;51.094;6.996;2023-02-23T08:25:58;8.10;99.90
46976;DHT22;32724;51.094;6.996;2023-02-23T08:28:24;8.20;99.90
46976;DHT22;32724;51.094;6.996;2023-02-23T08:30:49;8.30;99.90
46976;DHT22;32724;51.094;6.996;2023-02-23T08:33:15;8.40;99.90
46976;DHT22;32724;51.094;6.996;2023-02-23T08:35:40;8.50;99.90
46976;DHT22;32724;51.094;6.996;2023-02-23T08:38:06;8.50;99.90
46976;DHT22;32724;51.094;6.996;2023-02-23T08:40:31;8.60;99.90
46976;DHT22;32724;51.094;6.996;2023-02-23T08:42:57;8.60;99.90
46976;DHT22;32724;51.094;6.996;2023-02-23T08:45:23;8.60;99.90
46976;DHT22;32724;51.094;6.996;2023-02-23T08:47:48;8.70;99.90
46976;DHT22;32724;51.094;6.996;2023-02-23T08:50:14;8.70;99.90
46976;DHT22;32724;51.094;6.996;2023-02-23T08:52:39;8.10;99.90
46976;DHT22;32724;51.094;6.996;2023-02-23T08:55:05;7.90;99.90
46976;DHT22;32724;51.094;6.996;2023-02-23T08:57:32;8.00;99.90
46976;DHT22;32724;51.094;6.996;2023-02-23T08:59:57;8.10;99.90
46976;DHT22;32724;51.094;6.996;2023-02-23T09:02:23;8.10;99.90
46976;DHT22;32724;51.094;6.996;2023-02-23T09:04:49;8.10;99.90
46976;DHT22;32724;51.094;6.996;2023-02-23T09:07:15;8.10;99.90
46976;DHT22;32724;51.094;6.996;2023-02-23T09:09:41;8.10;99.90
46976;DHT22;32724;51.094;6.996;2023-02-23T09:12:06;8.10;99.90
46976;DHT22;32724;51.094;6.996;2023-02-23T09:14:32;8.10;99.90
46976;DHT22;32724;51.094;6.996;2023-02-23T09:16:57;8.30;99.90
46976;DHT22;32724;51.094;6.996;2023-02-23T09:19:23;8.30;99.90
46976;DHT22;32724;51.094;6.996;2023-02-23T09:21:48;8.00;99.90
46976;DHT22;32724;51.094;6.996;2023-02-23T09:24:14;8.10;99.90
46976;DHT22;32724;51.094;6.996;2023-02-23T09:26:42;8.30;99.90
46976;DHT22;32724;51.094;6.996;2023-02-23T09:29:08;8.60;99.90
46976;DHT22;32724;51.094;6.996;2023-02-23T09:31:34;8.70;99.90
46976;DHT22;32724;51.094;6.996;2023-02-23T09:33:59;8.80;99.90
46976;DHT22;32724;51.094;6.996;2023-02-23T09:36:26;9.00;99.90
46976;DHT22;32724;51.094;6.996;2023-02-23T09:38:52;9.10;99.90
46976;DHT22;32724;51.094;6.996;2023-02-23T09:49:02;9.50;99.90
46976;DHT22;32724;51.094;6.996;2023-02-23T09:51:31;9.60;99.90
46976;DHT22;32724;51.094;6.996;2023-02-23T09:53:58;9.00;99.90
46976;DHT22;32724;51.094;6.996;2023-02-23T09:56:37;8.80;99.90
46976;DHT22;32724;51.094;6.996;2023-02-23T09:59:06;8.70;99.90
46976;DHT22;32724;51.094;6.996;2023-02-23T10:04:11;8.70;99.90
46976;DHT22;32724;51.094;6.996;2023-02-23T10:06:39;8.80;99.90
46976;DHT22;32724;51.094;6.996;2023-02-23T10:11:51;9.00;99.90
46976;DHT22;32724;51.094;6.996;2023-02-23T10:19:36;9.10;99.90
46976;DHT22;32724;51.094;6.996;2023-02-23T10:22:06;9.30;99.90
46976;DHT22;32724;51.094;6.996;2023-02-23T10:24:38;9.50;99.90
46976;DHT22;32724;51.094;6.996;2023-02-23T10:27:09;9.50;99.90
46976;DHT22;32724;51.094;6.996;2023-02-23T10:29:40;9.60;99.90
46976;DHT22;32724;51.094;6.996;2023-02-23T10:34:38;9.80;99.90
46976;DHT22;32724;51.094;6.996;2023-02-23T10:37:05;9.90;99.90
46976;DHT22;32724;51.094;6.996;2023-02-23T10:39:30;9.80;99.90
46976;DHT22;32724;51.094;6.996;2023-02-23T10:41:57;9.70;99.90
46976;DHT22;32724;51.094;6.996;2023-02-23T10:44:24;9.60;99.90
46976;DHT22;32724;51.094;6.996;2023-02-23T10:46:57;9.60;99.90
46976;DHT22;32724;51.094;6.996;2023-02-23T10:49:26;9.40;99.90
46976;DHT22;32724;51.094;6.996;2023-02-23T10:51:54;9.10;99.90
46976;DHT22;32724;51.094;6.996;2023-02-23T10:54:38;9.10;99.90
46976;DHT22;32724;51.094;6.996;2023-02-23T10:57:07;9.30;99.90
46976;DHT22;32724;51.094;6.996;2023-02-23T10:59:33;9.20;99.90
46976;DHT22;32724;51.094;6.996;2023-02-23T11:02:06;9.10;99.90
46976;DHT22;32724;51.094;6.996;2023-02-23T11:04:40;9.10;99.90
46976;DHT22;32724;51.094;6.996;2023-02-23T11:07:16;9.20;99.90
46976;DHT22;32724;51.094;6.996;2023-02-23T11:09:42;9.40;99.90
46976;DHT22;32724;51.094;6.996;2023-02-23T11:12:15;9.50;99.90
46976;DHT22;32724;51.094;6.996;2023-02-23T11:14:41;9.60;99.90
46976;DHT22;32724;51.094;6.996;2023-02-23T11:17:09;9.70;99.90
46976;DHT22;32724;51.094;6.996;2023-02-23T11:19:45;9.80;99.90
46976;DHT22;32724;51.094;6.996;2023-02-23T11:22:16;9.80;99.90
46976;DHT22;32724;51.094;6.996;2023-02-23T11:24:47;9.90;99.90
46976;DHT22;32724;51.094;6.996;2023-02-23T11:27:20;10.00;99.90
46976;DHT22;32724;51.094;6.996;2023-02-23T11:29:47;9.90;99.90
46976;DHT22;32724;51.094;6.996;2023-02-23T11:32:19;9.90;99.90
46976;DHT22;32724;51.094;6.996;2023-02-23T11:34:45;9.80;99.90
46976;DHT22;32724;51.094;6.996;2023-02-23T11:39:50;9.80;99.90
46976;DHT22;32724;51.094;6.996;2023-02-23T11:42:16;9.50;99.90
46976;DHT22;32724;51.094;6.996;2023-02-23T11:44:48;9.30;99.90
46976;DHT22;32724;51.094;6.996;2023-02-23T11:47:15;9.30;99.90
46976;DHT22;32724;51.094;6.996;2023-02-23T11:49:42;9.20;99.90
46976;DHT22;32724;51.094;6.996;2023-02-23T11:52:16;9.20;99.90
46976;DHT22;32724;51.094;6.996;2023-02-23T11:54:47;9.10;99.90
46976;DHT22;32724;51.094;6.996;2023-02-23T11:57:25;9.10;99.90
46976;DHT22;32724;51.094;6.996;2023-02-23T11:59:52;9.10;99.90
46976;DHT22;32724;51.094;6.996;2023-02-23T12:02:25;9.10;99.90
46976;DHT22;32724;51.094;6.996;2023-02-23T12:05:36;9.10;99.90
46976;DHT22;32724;51.094;6.996;2023-02-23T12:07:40;9.20;99.90
46976;DHT22;32724;51.094;6.996;2023-02-23T12:15:22;9.30;99.90
46976;DHT22;32724;51.094;6.996;2023-02-23T12:17:49;9.30;99.90
46976;DHT22;32724;51.094;6.996;2023-02-23T12:20:20;9.40;99.90
46976;DHT22;32724;51.094;6.996;2023-02-23T12:22:47;9.30;99.90
46976;DHT22;32724;51.094;6.996;2023-02-23T12:27:46;9.30;99.90
46976;DHT22;32724;51.094;6.996;2023-02-23T12:30:19;9.40;99.90
46976;DHT22;32724;51.094;6.996;2023-02-23T12:32:50;9.30;99.90
46976;DHT22;32724;51.094;6.996;2023-02-23T12:35:29;9.20;99.90
46976;DHT22;32724;51.094;6.996;2023-02-23T12:40:28;9.10;99.90
46976;DHT22;32724;51.094;6.996;2023-02-23T12:50:38;9.00;99.90
46976;DHT22;32724;51.094;6.996;2023-02-23T12:53:19;8.90;99.90
46976;DHT22;32724;51.094;6.996;2023-02-23T12:58:28;8.90;99.90
46976;DHT22;32724;51.094;6.996;2023-02-23T13:06:05;9.00;99.90
46976;DHT22;32724;51.094;6.996;2023-02-23T13:16:15;8.60;99.90
46976;DHT22;32724;51.094;6.996;2023-02-23T13:21:16;8.40;99.90
46976;DHT22;32724;51.094;6.996;2023-02-23T13:24:28;8.40;99.90
46976;DHT22;32724;51.094;6.996;2023-02-23T13:31:59;8.20;99.90
46976;DHT22;32724;51.094;6.996;2023-02-23T13:34:26;8.30;99.90
46976;DHT22;32724;51.094;6.996;2023-02-23T13:36:52;8.30;99.90
46976;DHT22;32724;51.094;6.996;2023-02-23T13:39:26;8.20;99.90
46976;DHT22;32724;51.094;6.996;2023-02-23T13:45:25;8.10;99.90
46976;DHT22;32724;51.094;6.996;2023-02-23T13:52:42;8.10;99.90
46976;DHT22;32724;51.094;6.996;2023-02-23T13:58:02;8.40;99.90
46976;DHT22;32724;51.094;6.996;2023-02-23T14:00:28;8.40;99.90
46976;DHT22;32724;51.094;6.996;2023-02-23T14:02:54;8.50;99.90
46976;DHT22;32724;51.094;6.996;2023-02-23T14:05:23;8.60;99.90
46976;DHT22;32724;51.094;6.996;2023-02-23T14:07:59;8.70;99.90
46976;DHT22;32724;51.094;6.996;2023-02-23T14:10:34;8.90;99.90
46976;DHT22;32724;51.094;6.996;2023-02-23T14:13:02;9.00;99.90
46976;DHT22;32724;51.094;6.996;2023-02-23T14:15:39;9.00;99.90
46976;DHT22;32724;51.094;6.996;2023-02-23T14:18:27;9.10;99.90
46976;DHT22;32724;51.094;6.996;2023-02-23T14:20:57;9.20;99.90
46976;DHT22;32724;51.094;6.996;2023-02-23T14:23:27;9.00;99.90
46976;DHT22;32724;51.094;6.996;2023-02-23T14:26:10;8.60;99.90
46976;DHT22;32724;51.094;6.996;2023-02-23T14:28:37;8.70;99.90
46976;DHT22;32724;51.094;6.996;2023-02-23T14:33:36;8.50;99.90
46976;DHT22;32724;51.094;6.996;2023-02-23T14:36:26;8.40;99.90
46976;DHT22;32724;51.094;6.996;2023-02-23T14:41:50;8.40;99.90
46976;DHT22;32724;51.094;6.996;2023-02-23T14:46:33;8.30;99.90
46976;DHT22;32724;51.094;6.996;2023-02-23T14:49:01;8.50;99.90
46976;DHT22;32724;51.094;6.996;2023-02-23T14:51:35;8.60;99.90
46976;DHT22;32724;51.094;6.996;2023-02-23T14:54:08;8.70;99.90
46976;DHT22;32724;51.094;6.996;2023-02-23T14:56:43;8.80;99.90
46976;DHT22;32724;51.094;6.996;2023-02-23T14:59:14;8.90;99.90
46976;DHT22;32724;51.094;6.996;2023-02-23T15:01:41;8.90;99.90
46976;DHT22;32724;51.094;6.996;2023-02-23T15:04:18;8.90;99.90
46976;DHT22;32724;51.094;6.996;2023-02-23T15:06:44;8.90;99.90
46976;DHT22;32724;51.094;6.996;2023-02-23T15:09:32;8.90;99.90
46976;DHT22;32724;51.094;6.996;2023-02-23T15:11:57;8.90;99.90
46976;DHT22;32724;51.094;6.996;2023-02-23T15:14:23;8.90;99.90
46976;DHT22;32724;51.094;6.996;2023-02-23T15:16:49;8.40;99.90
46976;DHT22;32724;51.094;6.996;2023-02-23T15:19:16;8.30;99.90
46976;DHT22;32724;51.094;6.996;2023-02-23T15:21:42;8.30;99.90
46976;DHT22;32724;51.094;6.996;2023-02-23T15:24:14;8.30;99.90
46976;DHT22;32724;51.094;6.996;2023-02-23T15:26:46;8.30;99.90
46976;DHT22;32724;51.094;6.996;2023-02-23T15:29:12;8.30;99.90
46976;DHT22;32724;51.094;6.996;2023-02-23T15:31:39;8.30;99.90
46976;DHT22;32724;51.094;6.996;2023-02-23T15:34:18;8.20;99.90
46976;DHT22;32724;51.094;6.996;2023-02-23T15:36:45;8.10;99.90
46976;DHT22;32724;51.094;6.996;2023-02-23T15:39:14;8.30;99.90
46976;DHT22;32724;51.094;6.996;2023-02-23T15:41:40;8.30;99.90
46976;DHT22;32724;51.094;6.996;2023-02-23T15:46:34;8.10;99.90
46976;DHT22;32724;51.094;6.996;2023-02-23T15:49:02;8.30;99.90
46976;DHT22;32724;51.094;6.996;2023-02-23T15:51:39;8.40;99.90
46976;DHT22;32724;51.094;6.996;2023-02-23T15:54:21;8.50;99.90
46976;DHT22;32724;51.094;6.996;2023-02-23T15:56:48;8.50;99.90
46976;DHT22;32724;51.094;6.996;2023-02-23T15:59:21;8.60;99.90
46976;DHT22;32724;51.094;6.996;2023-02-23T16:01:50;8.60;99.90
46976;DHT22;32724;51.094;6.996;2023-02-23T16:04:18;8.60;99.90
46976;DHT22;32724;51.094;6.996;2023-02-23T16:06:48;8.60;99.90
46976;DHT22;32724;51.094;6.996;2023-02-23T16:14:45;8.50;99.90
46976;DHT22;32724;51.094;6.996;2023-02-23T16:17:34;8.40;99.90
46976;DHT22;32724;51.094;6.996;2023-02-23T16:22:32;8.30;99.90
46976;DHT22;32724;51.094;6.996;2023-02-23T16:24:59;8.20;99.90
46976;DHT22;32724;51.094;6.996;2023-02-23T16:27:26;8.10;99.90
46976;DHT22;32724;51.094;6.996;2023-02-23T16:29:57;7.90;99.90
46976;DHT22;32724;51.094;6.996;2023-02-23T16:32:30;7.60;99.90
46976;DHT22;32724;51.094;6.996;2023-02-23T16:34:59;7.60;99.90
46976;DHT22;32724;51.094;6.996;2023-02-23T16:37:25;7.60;99.90
46976;DHT22;32724;51.094;6.996;2023-02-23T16:39:55;7.60;99.90
46976;DHT22;32724;51.094;6.996;2023-02-23T16:42:30;7.50;99.90
46976;DHT22;32724;51.094;6.996;2023-02-23T16:44:56;7.40;99.90
46976;DHT22;32724;51.094;6.996;2023-02-23T16:49:50;7.10;99.90
46976;DHT22;32724;51.094;6.996;2023-02-23T16:52:17;7.00;99.90
46976;DHT22;32724;51.094;6.996;2023-02-23T16:54:43;7.10;99.90
46976;DHT22;32724;51.094;6.996;2023-02-23T16:57:22;7.30;99.90
46976;DHT22;32724;51.094;6.996;2023-02-23T16:59:49;7.40;99.90
46976;DHT22;32724;51.094;6.996;2023-02-23T17:02:15;7.50;99.90
46976;DHT22;32724;51.094;6.996;2023-02-23T17:04:42;7.70;99.90
46976;DHT22;32724;51.094;6.996;2023-02-23T17:07:13;7.70;99.90
46976;DHT22;32724;51.094;6.996;2023-02-23T17:09:38;7.90;99.90
46976;DHT22;32724;51.094;6.996;2023-02-23T17:12:04;7.90;99.90
46976;DHT22;32724;51.094;6.996;2023-02-23T17:14:29;7.90;99.90
46976;DHT22;32724;51.094;6.996;2023-02-23T17:16:56;7.90;99.90
46976;DHT22;32724;51.094;6.996;2023-02-23T17:19:22;7.90;99.90
46976;DHT22;32724;51.094;6.996;2023-02-23T17:21:48;7.90;99.90
46976;DHT22;32724;51.094;6.996;2023-02-23T17:24:14;7.90;99.90
46976;DHT22;32724;51.094;6.996;2023-02-23T17:26:39;7.90;99.90
46976;DHT22;32724;51.094;6.996;2023-02-23T17:29:06;7.90;99.90
46976;DHT22;32724;51.094;6.996;2023-02-23T17:31:32;7.90;99.90
46976;DHT22;32724;51.094;6.996;2023-02-23T17:33:57;7.90;99.90
46976;DHT22;32724;51.094;6.996;2023-02-23T17:36:23;7.90;99.90
46976;DHT22;32724;51.094;6.996;2023-02-23T17:38:52;7.90;99.90
46976;DHT22;32724;51.094;6.996;2023-02-23T17:41:23;7.90;99.90
46976;DHT22;32724;51.094;6.996;2023-02-23T17:43:49;7.90;99.90
46976;DHT22;32724;51.094;6.996;2023-02-23T17:46:15;7.70;99.90
46976;DHT22;32724;51.094;6.996;2023-02-23T17:48:40;7.60;99.90
46976;DHT22;32724;51.094;6.996;2023-02-23T17:51:09;7.50;99.90
46976;DHT22;32724;51.094;6.996;2023-02-23T17:53:36;7.50;99.90
46976;DHT22;32724;51.094;6.996;2023-02-23T17:56:02;7.50;99.90
46976;DHT22;32724;51.094;6.996;2023-02-23T17:58:28;7.50;99.90
46976;DHT22;32724;51.094;6.996;2023-02-23T18:00:54;7.50;99.90
46976;DHT22;32724;51.094;6.996;2023-02-23T18:03:20;7.50;99.90
46976;DHT22;32724;51.094;6.996;2023-02-23T18:05:46;7.60;99.90
46976;DHT22;32724;51.094;6.996;2023-02-23T18:08:12;7.70;99.90
46976;DHT22;32724;51.094;6.996;2023-02-23T18:10:38;7.80;99.90